Impacts METAR Board INFO
IDs:

KMSP - Minneapolis-St Paul, MN, US

Updated at: 0359 UTC 17 Dec 2017
Potential Impact None Slight Moderate High
Time16/15Z 16/16Z 16/17Z 16/18Z 16/19Z 16/20Z 16/21Z 16/22Z 16/23Z 17/00Z 17/01Z 17/02Z 17/03Z
VIS6 6 7 7 7 8 6 8 10 10 10 10 10
CIG7 7 9 10 11 12 13 16 18 19 18 20 21
CoverOVCOVCOVCOVCOVCOVCOVCOVCOVCOVCOVCOVCBKN
FltCatIFRIFRIFRMVFRMVFRMVFRMVFRMVFRMVFRMVFRMVFRMVFRMVFR
WXBRBR--------HZ------------
WDir70607014070401007080806080
WSpd5 6 6 3 4 3 5 0 8 6 6 5 6
WGst-- -- -- -- -- -- -- -- -- -- -- -- --
Raw hourly METARs
KMSP 161453Z 07005KT 6SM BR OVC007 M04/M04 A2982 RMK AO2 PRESRR SLP108 T10391044 51035
KMSP 161553Z 06006KT 6SM BR OVC007 M03/M04 A2985 RMK AO2 SLP119 T10331039
KMSP 161653Z 07006KT 7SM OVC009 M02/M04 A2987 RMK AO2 SLP126 T10221039
KMSP 161753Z 14003KT 7SM OVC010 M02/M04 A2989 RMK AO2 SLP132 4/002 T10221039 11022 21039 51024
KMSP 161853Z 07004KT 7SM OVC011 M02/M04 A2990 RMK AO2 SLP136 T10221039
KMSP 161953Z 04003KT 8SM OVC012 M02/M04 A2992 RMK AO2 SLP142 T10171039
KMSP 162053Z 01005KT 6SM HZ OVC013 M02/M04 A2994 RMK AO2 SLP150 T10171044 53018
KMSP 162153Z 00000KT 8SM OVC016 M02/M05 A2999 RMK AO2 SLP168 T10171050
KMSP 162253Z 07008KT 10SM OVC018 M02/M06 A3000 RMK AO2 SLP170 T10221056
KMSP 162353Z 08006KT 10SM BKN019 OVC210 M03/M06 A3003 RMK AO2 SLP180 4/002 T10281056 11017 21028 51028
KMSP 170053Z 08006KT 10SM BKN018 OVC200 M03/M07 A3006 RMK AO2 SLP191 T10331067
KMSP 170153Z 06005KT 10SM OVC020 M03/M07 A3008 RMK AO2 SLP198 T10331067
KMSP 170253Z 08006KT 10SM BKN021 M03/M07 A3009 RMK AO2 SLP202 T10331072 51022